createdAt,value
2017-08-10T00:02:00.162Z,25.80
2017-08-10T00:04:30.694Z,25.80
2017-08-10T00:07:01.185Z,25.90
2017-08-10T00:09:31.722Z,26.00
2017-08-10T00:12:02.284Z,26.10
2017-08-10T00:14:32.722Z,26.10
2017-08-10T00:17:03.190Z,26.20
2017-08-10T00:19:33.786Z,26.30
2017-08-10T00:22:10.006Z,26.30
2017-08-10T00:24:40.659Z,26.40
2017-08-10T00:27:11.134Z,26.60
2017-08-10T00:29:41.534Z,26.70
2017-08-10T00:32:11.942Z,26.90
2017-08-10T00:34:42.424Z,27.00
2017-08-10T00:37:12.975Z,27.30
2017-08-10T00:39:44.144Z,28.30
2017-08-10T00:42:14.693Z,28.20
2017-08-10T00:44:45.139Z,28.60
2017-08-10T00:47:16.109Z,28.70
2017-08-10T00:49:46.532Z,28.80
2017-08-10T00:52:16.961Z,28.90
2017-08-10T00:54:47.306Z,28.90
2017-08-10T00:57:18.705Z,28.90
2017-08-10T00:59:49.051Z,28.90
2017-08-10T01:02:19.545Z,28.90
2017-08-10T01:04:49.887Z,28.90
2017-08-10T01:07:20.468Z,28.90
2017-08-10T01:09:51.577Z,29.10
2017-08-10T01:12:21.954Z,29.10
2017-08-10T01:14:53.139Z,29.60
2017-08-10T01:17:23.737Z,29.60
2017-08-10T01:19:54.036Z,30.20
2017-08-10T01:22:24.546Z,30.30
2017-08-10T01:24:55.053Z,30.30
2017-08-10T01:27:25.513Z,30.20
2017-08-10T01:29:56.027Z,30.00
2017-08-10T01:32:26.602Z,30.00
2017-08-10T01:34:57.834Z,30.30
2017-08-10T01:37:28.289Z,30.30
2017-08-10T01:39:59.069Z,30.30
2017-08-10T01:42:29.494Z,30.50
2017-08-10T01:44:59.919Z,30.80
2017-08-10T01:47:30.669Z,31.20
2017-08-10T01:50:01.155Z,31.60
2017-08-10T01:52:31.775Z,31.80
2017-08-10T01:55:02.978Z,32.10
2017-08-10T01:57:33.378Z,32.10
2017-08-10T02:00:03.890Z,32.30
2017-08-10T02:02:36.759Z,32.50
2017-08-10T02:05:08.055Z,32.40
2017-08-10T02:07:38.655Z,32.40
2017-08-10T02:10:09.184Z,32.30
2017-08-10T02:12:39.721Z,32.30
2017-08-10T02:15:10.154Z,32.10
2017-08-10T02:17:40.797Z,32.00
2017-08-10T02:20:11.434Z,32.00
2017-08-10T02:22:41.866Z,32.10
2017-08-10T02:25:12.272Z,31.90
2017-08-10T02:27:42.703Z,31.60
2017-08-10T02:30:13.175Z,31.50
2017-08-10T02:32:43.665Z,31.40
2017-08-10T02:35:14.277Z,31.30
2017-08-10T02:37:45.442Z,31.00
2017-08-10T02:40:16.008Z,31.00
2017-08-10T02:42:46.511Z,30.90
2017-08-10T02:45:17.067Z,31.00
2017-08-10T02:47:47.868Z,31.10
2017-08-10T02:50:18.501Z,31.20
2017-08-10T02:52:49.132Z,31.20
2017-08-10T02:55:19.696Z,31.20
2017-08-10T02:57:50.177Z,31.20
2017-08-10T03:00:21.482Z,31.40
2017-08-10T03:02:51.906Z,31.40
2017-08-10T03:05:23.066Z,31.60
2017-08-10T03:07:53.562Z,31.60
2017-08-10T03:10:24.116Z,31.80
2017-08-10T03:12:54.729Z,31.80
2017-08-10T03:15:25.325Z,31.90
2017-08-10T03:17:56.546Z,32.10
2017-08-10T03:20:27.019Z,32.10
2017-08-10T03:22:57.658Z,32.40
2017-08-10T03:25:28.214Z,32.60
2017-08-10T03:27:58.687Z,32.70
2017-08-10T03:30:28.981Z,32.90
2017-08-10T03:32:59.305Z,33.10
2017-08-10T03:35:29.958Z,33.20
2017-08-10T03:38:02.025Z,33.30
2017-08-10T03:40:32.610Z,33.30
2017-08-10T03:43:03.173Z,33.30
2017-08-10T03:45:33.694Z,33.30
2017-08-10T03:48:04.742Z,33.20
2017-08-10T03:50:35.158Z,33.40
2017-08-10T03:53:05.584Z,33.30
2017-08-10T03:55:36.126Z,33.20
2017-08-10T03:58:07.540Z,33.10
2017-08-10T04:00:38.057Z,33.20
2017-08-10T04:03:09.181Z,33.80
2017-08-10T04:05:39.887Z,33.70
2017-08-10T04:08:10.522Z,33.80
2017-08-10T04:10:41.153Z,33.40
2017-08-10T04:13:11.580Z,33.30
2017-08-10T04:15:42.059Z,33.30
2017-08-10T04:18:13.389Z,33.00
2017-08-10T04:20:43.894Z,33.00
2017-08-10T04:23:14.429Z,33.40
2017-08-10T04:25:44.809Z,33.70
2017-08-10T04:28:15.864Z,33.50
2017-08-10T04:30:46.416Z,33.50
2017-08-10T04:33:16.946Z,33.50
2017-08-10T04:35:47.465Z,33.60
2017-08-10T04:38:18.068Z,33.90
2017-08-10T04:40:49.186Z,34.20
2017-08-10T04:43:19.656Z,34.20
2017-08-10T04:45:50.013Z,34.30
2017-08-10T04:48:20.510Z,34.30
2017-08-10T04:50:51.111Z,34.70
2017-08-10T04:53:21.678Z,35.00
2017-08-10T04:55:53.283Z,34.80
2017-08-10T04:58:23.907Z,34.80
2017-08-10T05:00:54.314Z,35.00
2017-08-10T05:03:24.803Z,35.20
2017-08-10T05:05:55.361Z,35.50
2017-08-10T05:08:25.979Z,35.40
2017-08-10T05:10:57.299Z,34.80
2017-08-10T05:13:27.668Z,34.80
2017-08-10T05:15:57.989Z,34.70
2017-08-10T05:18:28.585Z,34.40
2017-08-10T05:20:59.179Z,34.60
2017-08-10T05:23:29.621Z,35.00
2017-08-10T05:25:59.951Z,35.20
2017-08-10T05:28:30.552Z,35.00
2017-08-10T05:31:01.025Z,34.50
2017-08-10T05:33:31.506Z,34.60
2017-08-10T05:36:03.086Z,35.00
2017-08-10T05:38:33.679Z,35.20
2017-08-10T05:41:04.896Z,35.10
2017-08-10T05:43:36.170Z,35.20
2017-08-10T05:46:07.556Z,34.70
2017-08-10T05:48:38.303Z,34.70
2017-08-10T05:51:08.963Z,34.80
2017-08-10T05:53:39.532Z,34.70
2017-08-10T05:56:10.680Z,34.70
2017-08-10T05:58:41.809Z,34.40
2017-08-10T06:01:12.070Z,34.40
2017-08-10T06:03:42.688Z,33.90
2017-08-10T06:06:13.121Z,33.60
2017-08-10T06:08:43.744Z,33.40
2017-08-10T06:11:14.239Z,33.80
2017-08-10T06:13:44.850Z,34.10
2017-08-10T06:16:15.341Z,34.40
2017-08-10T06:18:45.771Z,34.60
2017-08-10T06:21:16.338Z,34.70
2017-08-10T06:23:46.789Z,34.70
2017-08-10T06:26:17.198Z,34.40
2017-08-10T06:28:47.663Z,34.40
2017-08-10T06:31:18.116Z,34.70
2017-08-10T06:33:48.751Z,34.90
2017-08-10T06:36:19.371Z,35.10
2017-08-10T06:38:50.572Z,35.20
2017-08-10T06:41:21.110Z,35.20
2017-08-10T06:43:51.509Z,35.40
2017-08-10T06:46:21.958Z,35.10
2017-08-10T06:48:52.825Z,34.90
2017-08-10T06:51:23.306Z,34.50
2017-08-10T06:53:53.922Z,34.60
2017-08-10T06:56:24.540Z,34.50
2017-08-10T06:58:56.125Z,34.50
2017-08-10T07:01:26.882Z,34.50
2017-08-10T07:03:57.418Z,34.70
2017-08-10T07:06:27.863Z,34.70
2017-08-10T07:08:58.366Z,34.90
2017-08-10T07:11:28.949Z,34.80
2017-08-10T07:14:00.206Z,34.90
2017-08-10T07:16:31.431Z,35.00
2017-08-10T07:19:01.983Z,34.90
2017-08-10T07:21:33.380Z,35.20
2017-08-10T07:24:03.805Z,35.20
2017-08-10T07:26:34.298Z,35.30
2017-08-10T07:29:05.471Z,35.40
2017-08-10T07:31:35.915Z,35.40
2017-08-10T07:34:06.435Z,35.30
2017-08-10T07:36:36.938Z,35.00
2017-08-10T07:39:07.519Z,34.90
2017-08-10T07:41:38.093Z,35.00
2017-08-10T07:44:09.280Z,35.40
2017-08-10T07:46:39.806Z,35.40
2017-08-10T07:49:10.412Z,35.70
2017-08-10T07:51:41.054Z,35.70
2017-08-10T07:54:11.566Z,35.60
2017-08-10T07:56:42.743Z,35.60
2017-08-10T07:59:13.176Z,35.50
2017-08-10T08:01:43.672Z,35.70
2017-08-10T08:04:15.051Z,36.10
2017-08-10T08:06:45.483Z,36.00
2017-08-10T08:09:15.886Z,36.00
2017-08-10T08:11:47.172Z,35.70
2017-08-10T08:14:17.475Z,35.60
2017-08-10T08:16:47.981Z,35.50
2017-08-10T08:19:19.136Z,35.30
2017-08-10T08:21:53.448Z,35.10
2017-08-10T08:24:24.676Z,34.80
2017-08-10T08:26:55.341Z,34.80
2017-08-10T08:29:25.958Z,34.70
2017-08-10T08:31:57.158Z,34.90
2017-08-10T08:34:27.631Z,34.80
2017-08-10T08:36:59.033Z,35.20
2017-08-10T08:39:29.421Z,35.10
2017-08-10T08:42:00.800Z,35.60
2017-08-10T08:44:31.262Z,35.50
2017-08-10T08:47:01.691Z,35.70
2017-08-10T08:49:32.601Z,35.40
2017-08-10T08:52:03.547Z,35.40
2017-08-10T08:54:36.949Z,35.40
2017-08-10T08:57:07.163Z,35.60
2017-08-10T08:59:37.814Z,35.40
2017-08-10T09:02:08.133Z,35.10
2017-08-10T09:04:38.610Z,34.90
2017-08-10T09:07:08.904Z,34.70
2017-08-10T09:09:40.298Z,34.80
2017-08-10T09:12:11.431Z,35.00
2017-08-10T09:14:41.896Z,35.00
2017-08-10T09:17:12.307Z,35.00
2017-08-10T09:19:42.912Z,34.90
2017-08-10T09:22:13.496Z,35.00
2017-08-10T09:24:44.005Z,35.10
2017-08-10T09:27:14.666Z,35.00
2017-08-10T09:29:45.302Z,35.20
2017-08-10T09:32:15.928Z,35.00
2017-08-10T09:34:47.247Z,34.70
2017-08-10T09:37:18.510Z,34.10
2017-08-10T09:39:49.161Z,34.00
2017-08-10T09:42:19.476Z,33.70
2017-08-10T09:44:50.008Z,33.40
2017-08-10T09:47:20.572Z,33.30
2017-08-10T09:49:51.261Z,33.00
2017-08-10T09:52:21.784Z,33.00
2017-08-10T09:54:52.311Z,32.80
2017-08-10T09:57:23.606Z,32.50
2017-08-10T09:59:54.032Z,32.50
2017-08-10T10:02:24.430Z,32.50
2017-08-10T10:04:55.017Z,32.50
2017-08-10T10:07:25.622Z,32.60
2017-08-10T10:09:56.253Z,32.50
2017-08-10T10:12:26.875Z,32.40
2017-08-10T10:14:57.287Z,32.40
2017-08-10T10:17:27.738Z,32.10
2017-08-10T10:19:58.257Z,31.90
2017-08-10T10:22:28.818Z,31.70
2017-08-10T10:24:59.198Z,31.70
2017-08-10T10:27:29.732Z,31.60
2017-08-10T10:30:00.265Z,31.60
2017-08-10T10:32:30.909Z,31.60
2017-08-10T10:35:01.426Z,31.40
2017-08-10T10:37:32.070Z,31.40
2017-08-10T10:40:02.643Z,31.50
2017-08-10T10:42:33.247Z,31.50
2017-08-10T10:45:03.889Z,31.40
2017-08-10T10:47:34.358Z,31.30
2017-08-10T10:50:04.616Z,31.20
2017-08-10T10:52:35.108Z,31.20
2017-08-10T10:55:05.568Z,31.20
2017-08-10T10:57:36.104Z,31.10
2017-08-10T11:00:06.553Z,31.10
2017-08-10T11:02:37.197Z,31.00
2017-08-10T11:05:07.820Z,30.90
2017-08-10T11:07:38.446Z,30.80
2017-08-10T11:10:08.911Z,30.70
2017-08-10T11:12:39.295Z,30.60
2017-08-10T11:15:10.630Z,30.60
2017-08-10T11:17:41.810Z,30.50
2017-08-10T11:20:12.416Z,30.50
2017-08-10T11:22:42.998Z,30.40
2017-08-10T11:25:13.460Z,30.40
2017-08-10T11:27:44.783Z,30.40
2017-08-10T11:30:15.206Z,30.40
2017-08-10T11:32:45.812Z,30.40
2017-08-10T11:35:16.419Z,30.30
2017-08-10T11:37:47.704Z,30.30
2017-08-10T11:40:18.085Z,30.30
2017-08-10T11:42:49.379Z,30.20
2017-08-10T11:45:19.775Z,30.20
2017-08-10T11:50:27.699Z,30.20
2017-08-10T11:52:58.088Z,30.10
2017-08-10T11:55:28.593Z,30.10
2017-08-10T11:57:58.803Z,30.10
2017-08-10T12:00:29.332Z,30.10
2017-08-10T12:02:59.700Z,30.10
2017-08-10T12:05:30.174Z,30.00
2017-08-10T12:08:00.629Z,29.90
2017-08-10T12:10:30.972Z,29.90
2017-08-10T12:13:01.561Z,29.80
2017-08-10T12:15:32.183Z,29.60
2017-08-10T12:18:02.446Z,29.50
2017-08-10T12:20:32.989Z,29.30
2017-08-10T12:23:03.561Z,29.10
2017-08-10T12:25:34.676Z,28.70
2017-08-10T12:28:05.291Z,28.70
2017-08-10T12:30:35.752Z,28.50
2017-08-10T12:33:06.262Z,28.30
2017-08-10T12:35:36.733Z,28.20
2017-08-10T12:38:08.129Z,28.10
2017-08-10T12:40:39.564Z,28.10
2017-08-10T12:45:46.154Z,27.90
2017-08-10T12:48:16.576Z,27.90
2017-08-10T12:50:47.385Z,27.80
2017-08-10T12:53:18.683Z,27.60
2017-08-10T12:55:49.067Z,27.50
2017-08-10T12:58:19.495Z,27.50
2017-08-10T13:00:50.462Z,27.20
2017-08-10T13:03:20.927Z,27.10
2017-08-10T13:05:51.406Z,27.00
2017-08-10T13:08:21.998Z,27.00
2017-08-10T13:10:52.567Z,26.90
2017-08-10T13:13:23.403Z,26.80
2017-08-10T13:15:54.036Z,26.70
2017-08-10T13:18:25.185Z,26.80
2017-08-10T13:20:55.550Z,26.80
2017-08-10T13:23:27.609Z,26.90
2017-08-10T13:25:58.003Z,26.90
2017-08-10T13:28:29.274Z,27.00
2017-08-10T13:30:59.806Z,27.00
2017-08-10T13:33:30.332Z,27.00
2017-08-10T13:36:00.799Z,27.00
2017-08-10T13:38:31.326Z,26.90
2017-08-10T13:41:01.695Z,26.90
2017-08-10T13:43:32.857Z,26.80
2017-08-10T13:46:03.448Z,26.80
2017-08-10T13:48:33.999Z,26.80
2017-08-10T13:51:04.739Z,26.70
2017-08-10T13:53:35.282Z,26.60
2017-08-10T13:56:05.870Z,26.60
2017-08-10T13:58:36.389Z,26.60
2017-08-10T14:01:06.909Z,26.50
2017-08-10T14:03:38.232Z,26.60
2017-08-10T14:06:08.679Z,26.60
2017-08-10T14:08:39.257Z,26.60
2017-08-10T14:11:15.979Z,26.60
2017-08-10T14:13:46.878Z,26.60
2017-08-10T14:16:18.922Z,26.50
2017-08-10T14:18:49.621Z,26.50
2017-08-10T14:21:20.159Z,26.60
2017-08-10T14:23:50.677Z,26.60
2017-08-10T14:26:21.260Z,26.70
2017-08-10T14:28:52.660Z,26.80
2017-08-10T14:31:23.455Z,26.80
2017-08-10T14:33:54.668Z,26.70
2017-08-10T14:36:25.979Z,26.60
2017-08-10T14:38:57.474Z,26.60
2017-08-10T14:41:28.501Z,26.40
2017-08-10T14:43:59.113Z,26.30
2017-08-10T14:46:29.737Z,26.30
2017-08-10T14:49:00.263Z,26.20
2017-08-10T14:51:31.047Z,26.20
2017-08-10T14:54:01.519Z,26.30
2017-08-10T14:56:32.034Z,26.30
2017-08-10T14:59:02.498Z,26.30
2017-08-10T15:01:32.879Z,26.30
2017-08-10T15:04:03.402Z,26.30
2017-08-10T15:06:33.852Z,26.30
2017-08-10T15:09:04.355Z,26.40
2017-08-10T15:11:34.868Z,26.50
2017-08-10T15:14:05.313Z,26.50
2017-08-10T15:16:35.710Z,26.60
2017-08-10T15:19:06.290Z,26.70
2017-08-10T15:21:36.834Z,26.80
2017-08-10T15:24:07.363Z,26.80
2017-08-10T15:26:38.069Z,26.80
2017-08-10T15:29:08.784Z,26.80
2017-08-10T15:31:39.337Z,26.80
2017-08-10T15:34:09.927Z,26.80
2017-08-10T15:36:40.430Z,26.80
2017-08-10T15:39:10.933Z,26.60
2017-08-10T15:41:41.288Z,26.60
2017-08-10T15:44:11.752Z,26.70
2017-08-10T15:46:42.293Z,26.70
2017-08-10T15:49:12.715Z,26.70
2017-08-10T15:51:44.608Z,26.60
2017-08-10T15:54:15.124Z,26.60
2017-08-10T15:56:45.915Z,26.60
2017-08-10T15:59:16.374Z,26.70
2017-08-10T16:01:46.904Z,26.90
2017-08-10T16:04:18.362Z,27.00
2017-08-10T16:06:48.940Z,27.20
2017-08-10T16:09:19.510Z,27.20
2017-08-10T16:11:50.859Z,27.20
2017-08-10T16:14:22.052Z,27.20
2017-08-10T16:16:52.483Z,27.20
2017-08-10T16:19:22.906Z,27.10
2017-08-10T16:21:54.122Z,27.10
2017-08-10T16:24:24.680Z,27.00
2017-08-10T16:26:55.186Z,27.00
2017-08-10T16:29:25.775Z,26.90
2017-08-10T16:31:56.347Z,26.80
2017-08-10T16:34:26.907Z,26.70
2017-08-10T16:36:57.504Z,26.80
2017-08-10T16:39:28.153Z,26.70
2017-08-10T16:41:58.771Z,26.60
2017-08-10T16:44:29.400Z,26.70
2017-08-10T16:47:00.601Z,26.60
2017-08-10T16:49:31.102Z,26.60
2017-08-10T16:52:01.815Z,26.70
2017-08-10T16:54:32.388Z,26.70
2017-08-10T16:57:02.789Z,26.60
2017-08-10T16:59:33.318Z,26.60
2017-08-10T17:02:03.855Z,26.60
2017-08-10T17:04:34.447Z,26.60
2017-08-10T17:07:04.700Z,26.60
2017-08-10T17:09:35.461Z,26.70
2017-08-10T17:12:05.781Z,26.60
2017-08-10T17:14:36.242Z,26.60
2017-08-10T17:17:06.605Z,26.70
2017-08-10T17:19:37.783Z,26.60
2017-08-10T17:22:08.088Z,26.60
2017-08-10T17:24:38.622Z,26.60
2017-08-10T17:27:09.553Z,26.80
2017-08-10T17:29:40.934Z,26.60
2017-08-10T17:32:11.274Z,26.60
2017-08-10T17:34:41.770Z,26.70
2017-08-10T17:37:12.392Z,26.60
2017-08-10T17:39:43.991Z,26.50
2017-08-10T17:42:14.650Z,26.50
2017-08-10T17:44:45.144Z,26.50
2017-08-10T17:47:15.609Z,26.50
2017-08-10T17:49:46.840Z,26.40
2017-08-10T17:52:17.629Z,26.40
2017-08-10T17:54:48.263Z,26.50
2017-08-10T17:57:18.883Z,26.40
2017-08-10T17:59:50.192Z,26.60
2017-08-10T18:02:20.707Z,26.60
2017-08-10T18:04:51.254Z,26.60
2017-08-10T18:07:21.738Z,26.50
2017-08-10T18:09:52.340Z,26.30
2017-08-10T18:12:22.923Z,26.50
2017-08-10T18:14:53.556Z,26.40
2017-08-10T18:17:24.002Z,26.40
2017-08-10T18:19:54.529Z,26.40
2017-08-10T18:22:25.026Z,26.50
2017-08-10T18:24:55.485Z,26.60
2017-08-10T18:27:25.899Z,26.50
2017-08-10T18:29:56.441Z,26.50
2017-08-10T18:32:26.825Z,26.50
2017-08-10T18:34:57.486Z,26.50
2017-08-10T18:37:28.064Z,26.40
2017-08-10T18:39:58.639Z,26.40
2017-08-10T18:42:29.899Z,26.40
2017-08-10T18:45:00.412Z,26.40
2017-08-10T18:47:31.662Z,26.40
2017-08-10T18:50:03.024Z,26.50
2017-08-10T18:52:33.946Z,26.50
2017-08-10T18:55:05.251Z,26.50
2017-08-10T18:57:35.714Z,26.50
2017-08-10T19:00:06.266Z,26.50
2017-08-10T19:02:38.625Z,26.60
2017-08-10T19:05:09.226Z,26.60
2017-08-10T19:07:39.710Z,26.50
2017-08-10T19:10:10.335Z,26.50
2017-08-10T19:12:40.960Z,26.40
2017-08-10T19:15:12.236Z,26.30
2017-08-10T19:17:42.647Z,26.30
2017-08-10T19:20:13.073Z,26.40
2017-08-10T19:22:43.669Z,26.50
2017-08-10T19:25:14.138Z,26.40
2017-08-10T19:27:44.778Z,26.30
2017-08-10T19:30:15.423Z,26.40
2017-08-10T19:32:46.018Z,26.30
2017-08-10T19:35:16.681Z,26.30
2017-08-10T19:37:47.289Z,26.20
2017-08-10T19:40:17.662Z,26.20
2017-08-10T19:42:48.263Z,26.30
2017-08-10T19:45:18.714Z,26.30
2017-08-10T19:47:49.167Z,26.30
2017-08-10T19:50:19.756Z,26.10
2017-08-10T19:52:50.677Z,26.10
2017-08-10T19:55:21.282Z,26.10
2017-08-10T19:57:51.833Z,26.10
2017-08-10T20:00:22.473Z,26.00
2017-08-10T20:02:53.107Z,26.00
2017-08-10T20:05:23.774Z,26.00
2017-08-10T20:07:54.430Z,25.90
2017-08-10T20:10:25.051Z,25.90
2017-08-10T20:12:55.697Z,25.90
2017-08-10T20:15:26.315Z,25.90
2017-08-10T20:17:56.957Z,25.80
2017-08-10T20:20:27.342Z,25.80
2017-08-10T20:22:57.884Z,25.80
2017-08-10T20:25:28.337Z,25.80
2017-08-10T20:27:58.627Z,25.70
2017-08-10T20:30:29.253Z,25.80
2017-08-10T20:32:59.874Z,25.70
2017-08-10T20:35:30.373Z,25.60
2017-08-10T20:38:00.749Z,25.60
2017-08-10T20:40:31.253Z,25.60
2017-08-10T20:43:01.668Z,25.60
2017-08-10T20:45:32.159Z,25.60
2017-08-10T20:48:02.537Z,25.70
2017-08-10T20:50:32.890Z,25.60
2017-08-10T20:53:04.557Z,25.60
2017-08-10T20:55:35.949Z,25.60
2017-08-10T20:58:06.339Z,25.60
2017-08-10T21:00:36.830Z,25.60
2017-08-10T21:03:07.423Z,25.60
2017-08-10T21:05:37.858Z,25.60
2017-08-10T21:08:08.466Z,25.60
2017-08-10T21:10:39.022Z,25.60
2017-08-10T21:13:09.582Z,25.50
2017-08-10T21:15:40.174Z,25.60
2017-08-10T21:18:10.776Z,25.50
2017-08-10T21:20:41.447Z,25.40
2017-08-10T21:23:11.903Z,25.50
2017-08-10T21:25:42.410Z,25.60
2017-08-10T21:28:12.948Z,25.50
2017-08-10T21:30:43.501Z,25.50
2017-08-10T21:33:13.862Z,25.60
2017-08-10T21:35:44.511Z,25.60
2017-08-10T21:38:15.038Z,25.60
2017-08-10T21:40:46.231Z,25.60
2017-08-10T21:43:16.734Z,25.50
2017-08-10T21:45:47.284Z,25.40
2017-08-10T21:48:17.859Z,25.30
2017-08-10T21:50:48.401Z,25.30
2017-08-10T21:53:20.209Z,25.20
2017-08-10T21:55:50.685Z,25.10
2017-08-10T21:58:22.141Z,25.10
2017-08-10T22:00:52.810Z,25.10
2017-08-10T22:03:23.319Z,25.10
2017-08-10T22:05:53.958Z,25.10
2017-08-10T22:08:24.571Z,25.20
2017-08-10T22:10:55.140Z,25.20
2017-08-10T22:13:25.690Z,25.20
2017-08-10T22:15:56.414Z,25.30
2017-08-10T22:18:26.733Z,25.30
2017-08-10T22:20:57.181Z,25.20
2017-08-10T22:23:27.551Z,25.30
2017-08-10T22:25:58.825Z,25.40
2017-08-10T22:28:29.349Z,25.40
2017-08-10T22:30:59.903Z,25.40
2017-08-10T22:33:30.445Z,25.40
2017-08-10T22:36:00.898Z,25.30
2017-08-10T22:38:31.505Z,25.20
2017-08-10T22:41:01.993Z,25.30
2017-08-10T22:43:32.529Z,25.30
2017-08-10T22:46:03.149Z,25.30
2017-08-10T22:48:33.757Z,25.30
2017-08-10T22:51:04.313Z,25.30
2017-08-10T22:53:35.277Z,25.20
2017-08-10T22:56:05.909Z,25.20
2017-08-10T22:58:36.526Z,25.30
2017-08-10T23:01:07.181Z,25.30
2017-08-10T23:03:37.802Z,25.40
2017-08-10T23:06:08.323Z,25.40
2017-08-10T23:08:38.967Z,25.40
2017-08-10T23:11:09.486Z,25.30
2017-08-10T23:13:40.090Z,25.30
2017-08-10T23:16:10.623Z,25.30
2017-08-10T23:18:41.219Z,25.20
2017-08-10T23:21:11.862Z,25.20
2017-08-10T23:23:42.289Z,25.30
2017-08-10T23:26:12.834Z,25.30
2017-08-10T23:28:43.417Z,25.30
2017-08-10T23:31:13.834Z,25.40
2017-08-10T23:33:44.436Z,25.40
2017-08-10T23:36:14.835Z,25.40
2017-08-10T23:38:45.347Z,25.40
2017-08-10T23:41:15.917Z,25.30
2017-08-10T23:43:46.324Z,25.30
2017-08-10T23:46:16.911Z,25.30
2017-08-10T23:48:47.478Z,25.30
2017-08-10T23:51:18.222Z,25.40
2017-08-10T23:53:49.363Z,25.50
2017-08-10T23:56:19.916Z,25.50
2017-08-10T23:58:50.327Z,25.60
